createdAt,value
2022-10-30T00:00:31.094Z,15.05
2022-10-30T00:02:35.504Z,15.06
2022-10-30T00:04:38.547Z,15.04
2022-10-30T00:06:41.720Z,15.01
2022-10-30T00:08:44.787Z,15.01
2022-10-30T00:10:50.147Z,14.99
2022-10-30T00:12:53.159Z,14.95
2022-10-30T00:14:56.284Z,14.92
2022-10-30T00:16:59.325Z,14.88
2022-10-30T00:19:03.744Z,14.87
2022-10-30T00:21:08.643Z,14.84
2022-10-30T00:23:11.725Z,14.82
2022-10-30T00:25:14.794Z,14.80
2022-10-30T00:27:17.833Z,14.76
2022-10-30T00:29:23.486Z,14.76
2022-10-30T00:31:26.481Z,14.75
2022-10-30T00:33:29.598Z,14.74
2022-10-30T00:35:34.883Z,14.72
2022-10-30T00:37:38.844Z,14.71
2022-10-30T00:39:44.640Z,14.70
2022-10-30T00:41:47.688Z,14.71
2022-10-30T00:43:50.898Z,14.67
2022-10-30T00:45:54.891Z,14.64
2022-10-30T00:48:00.973Z,14.60
2022-10-30T00:50:07.736Z,14.59
2022-10-30T00:52:12.468Z,14.57
2022-10-30T00:54:17.575Z,14.58
2022-10-30T00:56:22.272Z,14.56
2022-10-30T00:58:30.461Z,14.54
2022-10-30T01:00:33.518Z,14.52
2022-10-30T01:02:36.592Z,14.51
2022-10-30T01:04:42.564Z,14.50
2022-10-30T01:06:48.684Z,14.49
2022-10-30T01:08:58.818Z,14.51
2022-10-30T01:11:04.360Z,14.51
2022-10-30T01:13:07.889Z,14.49
2022-10-30T01:15:11.395Z,14.49
2022-10-30T01:17:28.755Z,14.51
2022-10-30T01:19:36.960Z,14.51
2022-10-30T01:21:50.399Z,14.51
2022-10-30T01:24:09.349Z,14.50
2022-10-30T01:26:23.980Z,14.50
2022-10-30T01:28:36.145Z,14.47
2022-10-30T01:30:51.513Z,14.51
2022-10-30T01:33:07.776Z,14.50
2022-10-30T01:35:16.561Z,14.50
2022-10-30T01:37:23.981Z,14.50
2022-10-30T01:39:30.156Z,14.50
2022-10-30T01:41:33.220Z,14.49
2022-10-30T01:43:37.877Z,14.50
2022-10-30T01:46:10.993Z,14.49
2022-10-30T01:48:39.321Z,14.47
2022-10-30T01:50:48.741Z,14.41
2022-10-30T01:52:58.956Z,14.38
2022-10-30T01:55:09.404Z,14.39
2022-10-30T01:57:18.608Z,14.38
2022-10-30T01:59:27.437Z,14.38
2022-10-30T02:01:34.981Z,14.39
2022-10-30T02:03:39.462Z,14.38
2022-10-30T02:06:02.723Z,14.37
2022-10-30T02:08:07.339Z,14.36
2022-10-30T02:10:15.977Z,14.36
2022-10-30T02:12:19.757Z,14.35
2022-10-30T02:14:26.929Z,14.34
2022-10-30T02:16:30.310Z,14.33
2022-10-30T02:18:33.756Z,14.35
2022-10-30T02:20:39.824Z,14.35
2022-10-30T02:22:43.821Z,14.34
2022-10-30T02:24:47.351Z,14.30
2022-10-30T02:26:50.959Z,14.30
2022-10-30T02:28:54.504Z,14.30
2022-10-30T02:30:58.193Z,14.28
2022-10-30T02:33:02.139Z,14.27
2022-10-30T02:35:06.938Z,14.25
2022-10-30T02:37:12.216Z,14.21
2022-10-30T02:39:16.490Z,14.17
2022-10-30T02:41:20.020Z,14.18
2022-10-30T02:43:23.533Z,14.17
2022-10-30T02:45:27.155Z,14.19
2022-10-30T02:47:30.656Z,14.21
2022-10-30T02:49:34.179Z,14.21
2022-10-30T02:51:38.150Z,14.21
2022-10-30T02:53:43.445Z,14.20
2022-10-30T02:55:48.136Z,14.18
2022-10-30T02:57:51.471Z,14.16
2022-10-30T02:59:54.965Z,14.13
2022-10-30T03:01:58.430Z,14.15
2022-10-30T03:04:02.100Z,14.14
2022-10-30T03:06:07.329Z,14.15
2022-10-30T03:08:11.590Z,14.19
2022-10-30T03:10:16.636Z,14.19
2022-10-30T03:12:20.025Z,14.17
2022-10-30T03:14:23.614Z,14.18
2022-10-30T03:16:30.351Z,14.18
2022-10-30T03:18:34.398Z,14.18
2022-10-30T03:20:44.019Z,14.17
2022-10-30T03:22:48.211Z,14.17
2022-10-30T03:24:51.731Z,14.13
2022-10-30T03:26:56.733Z,14.13
2022-10-30T03:29:00.945Z,14.12
2022-10-30T03:31:06.811Z,14.11
2022-10-30T03:33:10.511Z,14.09
2022-10-30T03:35:14.003Z,14.11
2022-10-30T03:37:17.791Z,14.09
2022-10-30T03:39:21.187Z,14.09
2022-10-30T03:41:24.879Z,14.08
2022-10-30T03:43:30.239Z,14.05
2022-10-30T03:45:34.464Z,14.02
2022-10-30T03:47:41.250Z,14.01
2022-10-30T03:49:45.815Z,13.97
2022-10-30T03:51:53.881Z,13.99
2022-10-30T03:53:59.041Z,13.98
2022-10-30T03:56:05.348Z,13.93
2022-10-30T03:58:19.038Z,13.88
2022-10-30T04:00:24.025Z,13.90
2022-10-30T04:02:33.224Z,13.85
2022-10-30T04:04:36.329Z,13.82
2022-10-30T04:06:39.411Z,13.78
2022-10-30T04:08:43.623Z,13.74
2022-10-30T04:10:48.075Z,13.71
2022-10-30T04:12:51.168Z,13.71
2022-10-30T04:14:54.522Z,13.71
2022-10-30T04:16:58.927Z,13.70
2022-10-30T04:19:02.099Z,13.66
2022-10-30T04:21:05.522Z,13.68
2022-10-30T04:23:14.481Z,13.67
2022-10-30T04:25:17.985Z,13.64
2022-10-30T04:27:21.529Z,13.62
2022-10-30T04:29:25.610Z,13.61
2022-10-30T04:31:29.098Z,13.62
2022-10-30T04:33:33.503Z,13.62
2022-10-30T04:35:38.349Z,13.61
2022-10-30T04:37:53.359Z,13.59
2022-10-30T04:39:56.372Z,13.58
2022-10-30T04:42:02.653Z,13.56
2022-10-30T04:44:09.832Z,13.58
2022-10-30T04:46:12.798Z,13.57
2022-10-30T04:48:16.869Z,13.57
2022-10-30T04:50:21.661Z,13.55
2022-10-30T04:52:25.120Z,13.53
2022-10-30T04:54:29.057Z,13.53
2022-10-30T04:56:32.939Z,13.53
2022-10-30T04:58:36.052Z,13.50
2022-10-30T05:00:41.673Z,13.47
2022-10-30T05:02:49.840Z,13.46
2022-10-30T05:04:52.828Z,13.45
2022-10-30T05:06:57.216Z,13.44
2022-10-30T05:09:00.277Z,13.45
2022-10-30T05:11:10.824Z,13.46
2022-10-30T05:13:13.891Z,13.43
2022-10-30T05:15:18.452Z,13.45
2022-10-30T05:17:21.567Z,13.43
2022-10-30T05:19:26.820Z,13.44
2022-10-30T05:21:32.959Z,13.43
2022-10-30T05:23:37.307Z,13.43
2022-10-30T05:25:41.857Z,13.43
2022-10-30T05:27:47.690Z,13.42
2022-10-30T05:29:50.798Z,13.39
2022-10-30T05:31:53.971Z,13.39
2022-10-30T05:34:29.338Z,13.38
2022-10-30T05:36:32.596Z,13.37
2022-10-30T05:38:37.124Z,13.33
2022-10-30T05:40:43.380Z,13.32
2022-10-30T05:42:47.104Z,13.28
2022-10-30T05:45:05.790Z,13.27
2022-10-30T05:47:12.176Z,13.24
2022-10-30T05:49:18.712Z,13.22
2022-10-30T05:51:22.559Z,13.23
2022-10-30T05:53:29.675Z,13.22
2022-10-30T05:55:36.509Z,13.20
2022-10-30T05:57:46.666Z,13.19
2022-10-30T05:59:49.933Z,13.17
2022-10-30T06:01:53.079Z,13.16
2022-10-30T06:03:56.193Z,13.16
2022-10-30T06:05:59.234Z,13.16
2022-10-30T06:08:03.251Z,13.15
2022-10-30T06:10:07.171Z,13.13
2022-10-30T06:12:30.504Z,13.09
2022-10-30T06:14:52.004Z,13.10
2022-10-30T06:16:55.050Z,13.09
2022-10-30T06:19:15.493Z,13.09
2022-10-30T06:21:21.742Z,13.09
2022-10-30T06:23:32.611Z,13.08
2022-10-30T06:25:42.374Z,13.10
2022-10-30T06:27:51.482Z,13.09
2022-10-30T06:29:54.926Z,13.07
2022-10-30T06:31:59.802Z,13.05
2022-10-30T06:34:05.596Z,13.07
2022-10-30T06:36:10.763Z,13.07
2022-10-30T06:38:14.948Z,13.08
2022-10-30T06:40:18.676Z,13.09
2022-10-30T06:42:51.895Z,13.10
2022-10-30T06:45:18.487Z,13.14
2022-10-30T06:47:21.690Z,13.21
2022-10-30T06:49:24.655Z,13.30
2022-10-30T06:51:28.659Z,13.37
2022-10-30T06:53:31.954Z,13.46
2022-10-30T06:55:58.981Z,13.57
2022-10-30T06:58:22.161Z,13.78
2022-10-30T07:00:31.660Z,13.88
2022-10-30T07:03:10.020Z,14.03
2022-10-30T07:05:13.174Z,14.17
2022-10-30T07:07:16.807Z,14.34
2022-10-30T07:09:19.820Z,14.52
2022-10-30T07:11:23.949Z,14.64
2022-10-30T07:13:54.895Z,14.74
2022-10-30T07:16:06.584Z,14.85
2022-10-30T07:18:16.788Z,15.00
2022-10-30T07:20:20.157Z,15.11
2022-10-30T07:22:23.409Z,15.22
2022-10-30T07:24:29.430Z,15.31
2022-10-30T07:26:50.951Z,15.44
2022-10-30T07:29:18.290Z,15.56
2022-10-30T07:31:35.197Z,15.67
2022-10-30T07:33:45.874Z,15.80
2022-10-30T07:36:08.849Z,15.94
2022-10-30T07:38:38.306Z,16.06
2022-10-30T07:40:56.041Z,16.16
2022-10-30T07:43:22.123Z,16.23
2022-10-30T07:45:40.345Z,16.32
2022-10-30T07:48:07.502Z,16.35
2022-10-30T07:50:17.795Z,16.44
2022-10-30T07:52:20.861Z,16.55
2022-10-30T07:54:25.432Z,16.61
2022-10-30T07:56:29.123Z,16.71
2022-10-30T07:58:32.123Z,16.80
2022-10-30T08:01:12.181Z,16.89
2022-10-30T08:03:15.711Z,17.00
2022-10-30T08:05:29.993Z,17.04
2022-10-30T08:07:47.434Z,17.05
2022-10-30T08:09:51.275Z,17.05
2022-10-30T08:11:54.479Z,17.14
2022-10-30T08:13:57.606Z,17.26
2022-10-30T08:16:00.560Z,17.36
2022-10-30T08:18:05.280Z,17.45
2022-10-30T08:20:11.028Z,17.51
2022-10-30T08:22:14.280Z,17.62
2022-10-30T08:24:17.912Z,17.76
2022-10-30T08:26:23.227Z,17.81
2022-10-30T08:28:31.614Z,17.96
2022-10-30T08:30:38.028Z,18.06
2022-10-30T08:32:42.296Z,18.07
2022-10-30T08:35:06.417Z,18.14
2022-10-30T08:37:09.672Z,18.21
2022-10-30T08:39:12.747Z,18.22
2022-10-30T08:41:23.486Z,18.28
2022-10-30T08:43:28.538Z,18.35
2022-10-30T08:45:31.674Z,18.46
2022-10-30T08:47:58.194Z,18.55
2022-10-30T08:50:05.501Z,18.62
2022-10-30T08:52:09.638Z,18.70
2022-10-30T08:54:12.853Z,18.79
2022-10-30T08:56:16.056Z,18.81
2022-10-30T08:58:27.414Z,18.87
2022-10-30T09:00:31.164Z,18.88
2022-10-30T09:03:06.411Z,18.97
2022-10-30T09:05:16.854Z,19.07
2022-10-30T09:07:37.910Z,19.12
2022-10-30T09:10:10.445Z,19.17
2022-10-30T09:12:14.220Z,19.29
2022-10-30T09:14:20.557Z,19.40
2022-10-30T09:16:23.684Z,19.52
2022-10-30T09:18:26.890Z,19.65
2022-10-30T09:20:32.353Z,19.78
2022-10-30T09:22:35.668Z,19.84
2022-10-30T09:24:40.027Z,19.95
2022-10-30T09:27:01.310Z,20.06
2022-10-30T09:29:04.523Z,20.15
2022-10-30T09:31:26.428Z,20.25
2022-10-30T09:33:30.349Z,20.36
2022-10-30T09:35:58.062Z,20.45
2022-10-30T09:38:01.929Z,20.52
2022-10-30T09:40:06.959Z,20.63
2022-10-30T09:42:25.588Z,20.68
2022-10-30T09:44:45.810Z,20.76
2022-10-30T09:47:04.123Z,20.82
2022-10-30T09:49:18.393Z,20.89
2022-10-30T09:51:42.272Z,21.02
2022-10-30T09:53:56.605Z,21.08
2022-10-30T09:56:09.931Z,21.09
2022-10-30T09:58:23.648Z,21.18
2022-10-30T10:00:32.198Z,21.24
2022-10-30T10:02:38.811Z,21.27
2022-10-30T10:04:44.683Z,21.26
2022-10-30T10:06:54.553Z,21.25
2022-10-30T10:09:18.271Z,21.29
2022-10-30T10:11:54.995Z,21.37
2022-10-30T10:14:00.237Z,21.42
2022-10-30T10:16:09.128Z,21.49
2022-10-30T10:18:26.505Z,21.59
2022-10-30T10:20:34.347Z,21.69
2022-10-30T10:22:41.482Z,21.79
2022-10-30T10:24:47.601Z,21.86
2022-10-30T10:26:51.961Z,21.94
2022-10-30T10:29:05.549Z,22.02
2022-10-30T10:31:17.190Z,22.10
2022-10-30T10:33:44.419Z,22.18
2022-10-30T10:35:54.770Z,22.25
2022-10-30T10:38:10.133Z,22.32
2022-10-30T10:40:26.401Z,22.36
2022-10-30T10:42:37.394Z,22.41
2022-10-30T10:44:50.232Z,22.44
2022-10-30T10:47:07.518Z,22.44
2022-10-30T10:49:21.873Z,22.44
2022-10-30T10:51:27.384Z,22.45
2022-10-30T10:53:36.553Z,22.45
2022-10-30T10:55:42.465Z,22.46
2022-10-30T10:57:46.450Z,22.48
2022-10-30T10:59:58.122Z,22.49
2022-10-30T11:02:21.614Z,22.50
2022-10-30T11:04:30.288Z,22.53
2022-10-30T11:06:38.339Z,22.55
2022-10-30T11:08:42.754Z,22.56
2022-10-30T11:10:46.863Z,22.58
2022-10-30T11:12:50.326Z,22.57
2022-10-30T11:14:53.749Z,22.58
2022-10-30T11:17:04.588Z,22.59
2022-10-30T11:19:10.069Z,22.58
2022-10-30T11:21:18.763Z,22.59
2022-10-30T11:23:39.878Z,22.61
2022-10-30T11:25:44.362Z,22.61
2022-10-30T11:27:49.321Z,22.65
2022-10-30T11:29:53.937Z,22.70
2022-10-30T11:32:04.606Z,22.73
2022-10-30T11:34:26.419Z,22.77
2022-10-30T11:36:29.512Z,22.81
2022-10-30T11:38:32.536Z,22.82
2022-10-30T11:40:35.624Z,22.85
2022-10-30T11:42:41.037Z,22.87
2022-10-30T11:44:45.408Z,22.89
2022-10-30T11:46:48.419Z,22.90
2022-10-30T11:48:55.150Z,22.90
2022-10-30T11:51:00.603Z,22.91
2022-10-30T11:53:11.625Z,22.96
2022-10-30T11:55:18.134Z,22.96
2022-10-30T11:57:24.316Z,22.98
2022-10-30T11:59:28.693Z,22.99
2022-10-30T12:01:33.464Z,23.00
2022-10-30T12:03:38.184Z,23.01
2022-10-30T12:05:44.921Z,23.03
2022-10-30T12:07:50.315Z,23.06
2022-10-30T12:09:53.310Z,23.06
2022-10-30T12:11:56.267Z,23.07
2022-10-30T12:13:59.759Z,23.08
2022-10-30T12:16:15.236Z,23.09
2022-10-30T12:18:21.286Z,23.08
2022-10-30T12:20:24.278Z,23.09
2022-10-30T12:22:31.701Z,23.06
2022-10-30T12:24:37.149Z,23.04
2022-10-30T12:26:40.922Z,23.00
2022-10-30T12:28:51.785Z,22.97
2022-10-30T12:30:57.734Z,22.96
2022-10-30T12:33:05.596Z,22.97
2022-10-30T12:35:18.483Z,22.98
2022-10-30T12:37:26.065Z,22.98
2022-10-30T12:39:33.852Z,22.99
2022-10-30T12:41:43.523Z,23.00
2022-10-30T12:43:49.902Z,23.01
2022-10-30T12:45:58.528Z,23.03
2022-10-30T12:48:05.647Z,23.05
2022-10-30T12:50:18.391Z,23.06
2022-10-30T12:52:25.666Z,23.07
2022-10-30T12:54:33.531Z,23.09
2022-10-30T12:56:39.644Z,23.12
2022-10-30T12:58:45.610Z,23.15
2022-10-30T13:00:54.771Z,23.17
2022-10-30T13:03:01.188Z,23.17
2022-10-30T13:05:23.711Z,23.18
2022-10-30T13:07:31.435Z,23.19
2022-10-30T13:09:39.452Z,23.20
2022-10-30T13:11:47.154Z,23.19
2022-10-30T13:13:53.928Z,23.19
2022-10-30T13:15:58.759Z,23.19
2022-10-30T13:18:13.309Z,23.18
2022-10-30T13:20:19.454Z,23.18
2022-10-30T13:22:26.333Z,23.19
2022-10-30T13:24:40.083Z,23.20
2022-10-30T13:26:47.238Z,23.19
2022-10-30T13:28:55.511Z,23.21
2022-10-30T13:31:02.744Z,23.20
2022-10-30T13:33:12.359Z,23.19
2022-10-30T13:35:27.547Z,23.18
2022-10-30T13:37:36.757Z,23.17
2022-10-30T13:39:43.919Z,23.17
2022-10-30T13:42:01.493Z,23.16
2022-10-30T13:44:12.806Z,23.16
2022-10-30T13:46:35.101Z,23.13
2022-10-30T13:48:53.740Z,23.13
2022-10-30T13:51:13.821Z,23.12
2022-10-30T13:53:19.689Z,23.12
2022-10-30T13:55:25.697Z,23.11
2022-10-30T13:57:33.703Z,23.10
2022-10-30T13:59:53.388Z,23.09
2022-10-30T14:02:02.097Z,23.08
2022-10-30T14:04:11.116Z,23.07
2022-10-30T14:06:22.465Z,23.07
2022-10-30T14:08:35.333Z,23.05
2022-10-30T14:10:45.298Z,23.04
2022-10-30T14:12:53.396Z,23.05
2022-10-30T14:14:56.436Z,23.04
2022-10-30T14:17:12.159Z,23.04
2022-10-30T14:19:15.947Z,23.01
2022-10-30T14:21:51.535Z,22.98
2022-10-30T14:24:05.421Z,22.97
2022-10-30T14:26:16.214Z,22.93
2022-10-30T14:28:20.526Z,22.92
2022-10-30T14:30:23.770Z,22.90
2022-10-30T14:32:38.214Z,22.88
2022-10-30T14:34:42.499Z,22.86
2022-10-30T14:36:51.914Z,22.84
2022-10-30T14:39:02.306Z,22.84
2022-10-30T14:41:36.559Z,22.83
2022-10-30T14:43:46.508Z,22.79
2022-10-30T14:45:51.802Z,22.77
2022-10-30T14:47:58.684Z,22.74
2022-10-30T14:50:03.677Z,22.70
2022-10-30T14:52:16.966Z,22.66
2022-10-30T14:54:26.280Z,22.63
2022-10-30T14:56:36.410Z,22.58
2022-10-30T14:58:40.306Z,22.56
2022-10-30T15:00:45.871Z,22.53
2022-10-30T15:02:52.958Z,22.50
2022-10-30T15:05:12.745Z,22.47
2022-10-30T15:07:22.312Z,22.45
2022-10-30T15:09:41.666Z,22.39
2022-10-30T15:12:21.261Z,22.35
2022-10-30T15:14:40.556Z,22.29
2022-10-30T15:16:52.495Z,22.22
2022-10-30T15:18:59.591Z,22.20
2022-10-30T15:21:05.792Z,22.15
2022-10-30T15:23:11.507Z,22.10
2022-10-30T15:25:19.968Z,22.04
2022-10-30T15:27:26.679Z,22.00
2022-10-30T15:29:33.327Z,21.95
2022-10-30T15:31:36.329Z,21.92
2022-10-30T15:33:39.867Z,21.88
2022-10-30T15:35:48.600Z,21.80
2022-10-30T15:38:02.040Z,21.74
2022-10-30T15:40:19.974Z,21.69
2022-10-30T15:42:23.368Z,21.62
2022-10-30T15:44:28.684Z,21.56
2022-10-30T15:46:32.664Z,21.50
2022-10-30T15:48:39.421Z,21.44
2022-10-30T15:50:46.040Z,21.36
2022-10-30T15:52:49.456Z,21.29
2022-10-30T15:54:55.946Z,21.23
2022-10-30T15:57:42.679Z,21.17
2022-10-30T15:59:28.475Z,21.09
2022-10-30T16:01:39.051Z,21.00
2022-10-30T16:03:45.854Z,20.93
2022-10-30T16:05:51.549Z,20.86
2022-10-30T16:07:56.422Z,20.81
2022-10-30T16:10:01.332Z,20.77
2022-10-30T16:12:11.823Z,20.69
2022-10-30T16:14:22.670Z,20.60
2022-10-30T16:16:27.769Z,20.52
2022-10-30T16:18:33.124Z,20.49
2022-10-30T16:20:36.836Z,20.42
2022-10-30T16:22:41.067Z,20.36
2022-10-30T16:24:44.239Z,20.31
2022-10-30T16:26:47.245Z,20.27
2022-10-30T16:28:52.029Z,20.20
2022-10-30T16:30:56.040Z,20.13
2022-10-30T16:33:00.145Z,20.07
2022-10-30T16:35:04.814Z,20.01
2022-10-30T16:37:18.126Z,19.95
2022-10-30T16:39:21.911Z,19.90
2022-10-30T16:41:27.184Z,19.85
2022-10-30T16:43:31.786Z,19.79
2022-10-30T16:45:49.673Z,19.74
2022-10-30T16:47:54.965Z,19.68
2022-10-30T16:49:59.157Z,19.61
2022-10-30T16:52:05.891Z,19.56
2022-10-30T16:54:22.914Z,19.50
2022-10-30T16:56:30.545Z,19.44
2022-10-30T16:58:33.598Z,19.38
2022-10-30T17:00:37.105Z,19.32
2022-10-30T17:02:45.459Z,19.26
2022-10-30T17:04:53.827Z,19.22
2022-10-30T17:07:13.741Z,19.19
2022-10-30T17:09:22.735Z,19.14
2022-10-30T17:11:36.327Z,19.11
2022-10-30T17:13:42.860Z,19.07
2022-10-30T17:15:46.942Z,19.02
2022-10-30T17:18:10.999Z,18.94
2022-10-30T17:20:29.864Z,18.86
2022-10-30T17:22:34.484Z,18.77
2022-10-30T17:24:38.785Z,18.69
2022-10-30T17:26:42.540Z,18.61
2022-10-30T17:28:46.686Z,18.53
2022-10-30T17:30:49.897Z,18.46
2022-10-30T17:32:55.484Z,18.41
2022-10-30T17:35:02.256Z,18.37
2022-10-30T17:37:05.617Z,18.32
2022-10-30T17:39:09.378Z,18.28
2022-10-30T17:41:16.768Z,18.25
2022-10-30T17:43:24.913Z,18.21
2022-10-30T17:45:28.697Z,18.17
2022-10-30T17:47:31.791Z,18.15
2022-10-30T17:49:38.811Z,18.12
2022-10-30T17:51:41.978Z,18.10
2022-10-30T17:53:45.602Z,18.08
2022-10-30T17:55:51.799Z,18.05
2022-10-30T17:58:00.247Z,18.02
2022-10-30T18:00:03.773Z,17.98
2022-10-30T18:02:18.427Z,17.93
2022-10-30T18:04:21.773Z,17.91
2022-10-30T18:06:28.951Z,17.88
2022-10-30T18:08:33.941Z,17.84
2022-10-30T18:10:37.371Z,17.80
2022-10-30T18:12:41.706Z,17.77
2022-10-30T18:14:45.791Z,17.73
2022-10-30T18:16:54.503Z,17.65
2022-10-30T18:18:58.860Z,17.60
2022-10-30T18:21:02.316Z,17.54
2022-10-30T18:23:31.433Z,17.51
2022-10-30T18:25:35.869Z,17.48
2022-10-30T18:27:38.876Z,17.45
2022-10-30T18:29:42.211Z,17.44
2022-10-30T18:31:45.471Z,17.41
2022-10-30T18:33:48.992Z,17.39
2022-10-30T18:35:52.321Z,17.35
2022-10-30T18:37:55.553Z,17.32
2022-10-30T18:40:00.179Z,17.28
2022-10-30T18:42:03.867Z,17.25
2022-10-30T18:44:07.136Z,17.19
2022-10-30T18:46:10.589Z,17.15
2022-10-30T18:48:13.785Z,17.08
2022-10-30T18:50:17.393Z,17.02
2022-10-30T18:52:20.371Z,16.96
2022-10-30T18:54:23.850Z,16.89
2022-10-30T18:56:30.503Z,16.83
2022-10-30T18:58:33.837Z,16.80
2022-10-30T19:00:58.200Z,16.77
2022-10-30T19:03:02.986Z,16.70
2022-10-30T19:05:21.396Z,16.67
2022-10-30T19:07:24.508Z,16.64
2022-10-30T19:09:28.751Z,16.61
2022-10-30T19:11:33.705Z,16.60
2022-10-30T19:13:37.283Z,16.58
2022-10-30T19:15:42.377Z,16.55
2022-10-30T19:17:46.407Z,16.55
2022-10-30T19:19:49.625Z,16.54
2022-10-30T19:21:52.972Z,16.52
2022-10-30T19:23:56.390Z,16.51
2022-10-30T19:25:59.799Z,16.50
2022-10-30T19:28:05.261Z,16.48
2022-10-30T19:30:09.226Z,16.46
2022-10-30T19:32:12.317Z,16.44
2022-10-30T19:34:15.399Z,16.41
2022-10-30T19:36:30.962Z,16.39
2022-10-30T19:38:34.511Z,16.37
2022-10-30T19:40:38.689Z,16.33
2022-10-30T19:42:41.790Z,16.33
2022-10-30T19:44:46.593Z,16.33
2022-10-30T19:46:49.701Z,16.29
2022-10-30T19:48:58.298Z,16.25
2022-10-30T19:51:04.049Z,16.20
2022-10-30T19:53:08.853Z,16.15
2022-10-30T19:55:12.075Z,16.07
2022-10-30T19:57:15.656Z,16.04
2022-10-30T19:59:19.102Z,16.03
2022-10-30T20:01:24.159Z,16.03
2022-10-30T20:03:27.545Z,16.01
2022-10-30T20:05:36.664Z,15.99
2022-10-30T20:07:40.017Z,15.93
2022-10-30T20:09:42.957Z,15.87
2022-10-30T20:11:47.216Z,15.85
2022-10-30T20:13:52.177Z,15.81
2022-10-30T20:16:00.455Z,15.78
2022-10-30T20:18:13.121Z,15.75
2022-10-30T20:20:18.935Z,15.71
2022-10-30T20:22:27.162Z,15.66
2022-10-30T20:24:31.813Z,15.58
2022-10-30T20:26:38.497Z,15.51
2022-10-30T20:28:43.217Z,15.46
2022-10-30T20:30:46.542Z,15.41
2022-10-30T20:32:52.745Z,15.34
2022-10-30T20:34:57.497Z,15.28
2022-10-30T20:37:01.218Z,15.19
2022-10-30T20:39:05.721Z,15.20
2022-10-30T20:41:20.906Z,15.19
2022-10-30T20:43:28.476Z,15.14
2022-10-30T20:45:31.706Z,15.17
2022-10-30T20:47:34.883Z,15.18
2022-10-30T20:49:38.123Z,15.16
2022-10-30T20:51:42.656Z,15.15
2022-10-30T20:53:45.776Z,15.12
2022-10-30T20:55:49.342Z,15.13
2022-10-30T20:57:52.649Z,15.13
2022-10-30T20:59:56.446Z,15.09
2022-10-30T21:01:59.714Z,15.06
2022-10-30T21:04:03.287Z,15.01
2022-10-30T21:06:09.641Z,15.01
2022-10-30T21:08:14.946Z,14.99
2022-10-30T21:10:18.245Z,14.98
2022-10-30T21:12:21.597Z,14.99
2022-10-30T21:14:24.822Z,14.99
2022-10-30T21:16:28.033Z,14.97
2022-10-30T21:18:31.683Z,14.97
2022-10-30T21:20:35.168Z,14.94
2022-10-30T21:22:38.440Z,14.89
2022-10-30T21:24:43.163Z,14.88
2022-10-30T21:26:46.378Z,14.84
2022-10-30T21:28:49.496Z,14.79
2022-10-30T21:30:52.902Z,14.73
2022-10-30T21:32:56.114Z,14.63
2022-10-30T21:34:59.235Z,14.56
2022-10-30T21:37:02.515Z,14.53
2022-10-30T21:39:05.623Z,14.53
2022-10-30T21:41:10.320Z,14.54
2022-10-30T21:43:16.707Z,14.52
2022-10-30T21:45:20.169Z,14.53
2022-10-30T21:47:23.519Z,14.54
2022-10-30T21:49:27.166Z,14.53
2022-10-30T21:51:32.653Z,14.50
2022-10-30T21:53:35.813Z,14.44
2022-10-30T21:55:40.801Z,14.38
2022-10-30T21:57:45.375Z,14.30
2022-10-30T21:59:48.569Z,14.26
2022-10-30T22:01:54.955Z,14.22
2022-10-30T22:04:00.259Z,14.19
2022-10-30T22:06:07.837Z,14.16
2022-10-30T22:08:11.009Z,14.12
2022-10-30T22:10:14.526Z,14.12
2022-10-30T22:12:17.847Z,14.11
2022-10-30T22:14:22.466Z,14.11
2022-10-30T22:16:29.546Z,14.11
2022-10-30T22:18:32.973Z,14.10
2022-10-30T22:20:36.648Z,14.12
2022-10-30T22:22:40.699Z,14.10
2022-10-30T22:24:43.756Z,14.13
2022-10-30T22:26:47.674Z,14.12
2022-10-30T22:28:53.655Z,14.13
2022-10-30T22:31:04.533Z,14.12
2022-10-30T22:33:11.950Z,14.13
2022-10-30T22:35:15.337Z,14.12
2022-10-30T22:37:18.604Z,14.10
2022-10-30T22:39:24.707Z,14.07
2022-10-30T22:41:31.295Z,14.04
2022-10-30T22:43:37.784Z,14.03
2022-10-30T22:45:40.813Z,14.01
2022-10-30T22:47:45.919Z,13.98
2022-10-30T22:49:49.254Z,13.96
2022-10-30T22:51:55.806Z,13.95
2022-10-30T22:54:01.598Z,13.94
2022-10-30T22:56:13.592Z,13.91
2022-10-30T23:00:28.563Z,13.86
2022-10-30T23:02:32.383Z,13.86
2022-10-30T23:04:37.453Z,13.83
2022-10-30T23:06:40.717Z,13.81
2022-10-30T23:08:44.197Z,13.81
2022-10-30T23:10:52.999Z,13.80
2022-10-30T23:12:57.655Z,13.78
2022-10-30T23:15:01.063Z,13.77
2022-10-30T23:17:04.542Z,13.77
2022-10-30T23:19:07.766Z,13.75
2022-10-30T23:21:14.732Z,13.72
2022-10-30T23:23:17.975Z,13.70
2022-10-30T23:25:21.353Z,13.70
2022-10-30T23:27:24.651Z,13.68
2022-10-30T23:29:27.819Z,13.66
2022-10-30T23:31:33.605Z,13.66
2022-10-30T23:33:36.839Z,13.64
2022-10-30T23:35:40.714Z,13.65
2022-10-30T23:37:45.466Z,13.63
2022-10-30T23:39:48.673Z,13.62
2022-10-30T23:41:51.758Z,13.58
2022-10-30T23:43:56.598Z,13.57
2022-10-30T23:45:59.743Z,13.54
2022-10-30T23:48:02.872Z,13.52
2022-10-30T23:50:06.979Z,13.50
2022-10-30T23:52:10.240Z,13.47
2022-10-30T23:54:14.775Z,13.46
2022-10-30T23:56:18.322Z,13.43
2022-10-30T23:58:21.828Z,13.42
